sensor_id;sensor_type;location;lat;lon;timestamp;P1;durP1;ratioP1;P2;durP2;ratioP2
5147;SDS011;2592;48.140;7.614;2024-03-23T00:52:29;5.17;;;2.50;;
5147;SDS011;2592;48.140;7.614;2024-03-23T00:54:54;2.97;;;1.87;;
5147;SDS011;2592;48.140;7.614;2024-03-23T00:57:21;3.33;;;2.20;;
5147;SDS011;2592;48.140;7.614;2024-03-23T00:59:47;5.20;;;2.30;;
5147;SDS011;2592;48.140;7.614;2024-03-23T01:02:13;6.10;;;2.33;;
5147;SDS011;2592;48.140;7.614;2024-03-23T01:04:38;4.17;;;2.37;;
5147;SDS011;2592;48.140;7.614;2024-03-23T01:07:05;4.00;;;2.60;;
5147;SDS011;2592;48.140;7.614;2024-03-23T01:09:32;2.70;;;1.77;;
5147;SDS011;2592;48.140;7.614;2024-03-23T01:11:58;3.70;;;2.20;;
5147;SDS011;2592;48.140;7.614;2024-03-23T01:14:24;9.90;;;3.23;;
5147;SDS011;2592;48.140;7.614;2024-03-23T01:16:50;3.90;;;2.30;;
5147;SDS011;2592;48.140;7.614;2024-03-23T01:19:16;4.63;;;2.23;;
5147;SDS011;2592;48.140;7.614;2024-03-23T01:21:42;5.10;;;2.37;;
5147;SDS011;2592;48.140;7.614;2024-03-23T01:24:08;3.87;;;2.03;;
5147;SDS011;2592;48.140;7.614;2024-03-23T01:26:37;3.00;;;2.47;;
5147;SDS011;2592;48.140;7.614;2024-03-23T01:29:02;4.00;;;2.50;;
5147;SDS011;2592;48.140;7.614;2024-03-23T01:31:29;2.93;;;2.20;;
5147;SDS011;2592;48.140;7.614;2024-03-23T01:33:54;5.10;;;2.40;;
5147;SDS011;2592;48.140;7.614;2024-03-23T01:36:21;3.90;;;1.93;;
5147;SDS011;2592;48.140;7.614;2024-03-23T01:38:46;3.73;;;1.90;;
5147;SDS011;2592;48.140;7.614;2024-03-23T01:41:12;7.43;;;2.67;;
5147;SDS011;2592;48.140;7.614;2024-03-23T01:43:39;4.37;;;3.03;;
5147;SDS011;2592;48.140;7.614;2024-03-23T01:46:06;6.63;;;2.47;;
5147;SDS011;2592;48.140;7.614;2024-03-23T01:48:31;5.40;;;2.83;;
5147;SDS011;2592;48.140;7.614;2024-03-23T01:50:58;3.63;;;2.67;;
5147;SDS011;2592;48.140;7.614;2024-03-23T01:53:24;3.13;;;2.27;;
5147;SDS011;2592;48.140;7.614;2024-03-23T01:55:51;4.90;;;2.57;;
5147;SDS011;2592;48.140;7.614;2024-03-23T01:58:16;4.27;;;2.60;;
5147;SDS011;2592;48.140;7.614;2024-03-23T02:00:44;3.87;;;2.33;;
5147;SDS011;2592;48.140;7.614;2024-03-23T02:03:22;4.17;;;2.40;;
5147;SDS011;2592;48.140;7.614;2024-03-23T02:05:49;5.00;;;2.70;;
5147;SDS011;2592;48.140;7.614;2024-03-23T02:08:15;6.47;;;2.47;;
5147;SDS011;2592;48.140;7.614;2024-03-23T02:10:42;5.33;;;2.53;;
5147;SDS011;2592;48.140;7.614;2024-03-23T02:13:08;3.50;;;2.40;;
5147;SDS011;2592;48.140;7.614;2024-03-23T02:15:34;8.17;;;3.50;;
5147;SDS011;2592;48.140;7.614;2024-03-23T02:18:01;9.00;;;3.30;;
5147;SDS011;2592;48.140;7.614;2024-03-23T02:20:27;5.60;;;3.70;;
5147;SDS011;2592;48.140;7.614;2024-03-23T02:22:54;3.50;;;2.83;;
5147;SDS011;2592;48.140;7.614;2024-03-23T02:25:21;6.57;;;2.70;;
5147;SDS011;2592;48.140;7.614;2024-03-23T02:27:46;4.17;;;2.90;;
5147;SDS011;2592;48.140;7.614;2024-03-23T02:30:13;5.53;;;3.07;;
5147;SDS011;2592;48.140;7.614;2024-03-23T02:32:38;5.27;;;2.63;;
5147;SDS011;2592;48.140;7.614;2024-03-23T02:35:05;5.00;;;3.30;;
5147;SDS011;2592;48.140;7.614;2024-03-23T02:37:30;5.27;;;2.93;;
5147;SDS011;2592;48.140;7.614;2024-03-23T02:39:58;5.30;;;3.20;;
5147;SDS011;2592;48.140;7.614;2024-03-23T02:42:24;12.10;;;4.20;;
5147;SDS011;2592;48.140;7.614;2024-03-23T02:44:50;7.60;;;4.87;;
5147;SDS011;2592;48.140;7.614;2024-03-23T02:47:16;7.03;;;3.93;;
5147;SDS011;2592;48.140;7.614;2024-03-23T02:49:42;9.03;;;3.47;;
5147;SDS011;2592;48.140;7.614;2024-03-23T02:52:08;13.10;;;3.10;;
5147;SDS011;2592;48.140;7.614;2024-03-23T02:54:34;3.23;;;2.37;;
5147;SDS011;2592;48.140;7.614;2024-03-23T02:57:01;3.87;;;2.80;;
5147;SDS011;2592;48.140;7.614;2024-03-23T02:59:27;5.60;;;2.67;;
5147;SDS011;2592;48.140;7.614;2024-03-23T03:01:53;9.10;;;3.57;;
5147;SDS011;2592;48.140;7.614;2024-03-23T03:04:19;5.17;;;2.90;;
5147;SDS011;2592;48.140;7.614;2024-03-23T03:06:46;4.57;;;3.10;;
5147;SDS011;2592;48.140;7.614;2024-03-23T03:09:12;3.57;;;2.60;;
5147;SDS011;2592;48.140;7.614;2024-03-23T03:11:38;3.90;;;2.80;;
5147;SDS011;2592;48.140;7.614;2024-03-23T03:14:06;4.57;;;3.00;;
5147;SDS011;2592;48.140;7.614;2024-03-23T03:16:33;4.67;;;3.03;;
5147;SDS011;2592;48.140;7.614;2024-03-23T03:18:59;10.97;;;2.70;;
5147;SDS011;2592;48.140;7.614;2024-03-23T03:21:25;8.50;;;3.90;;
5147;SDS011;2592;48.140;7.614;2024-03-23T03:23:52;6.27;;;2.63;;
5147;SDS011;2592;48.140;7.614;2024-03-23T03:26:17;4.97;;;2.70;;
5147;SDS011;2592;48.140;7.614;2024-03-23T03:28:44;3.80;;;2.53;;
5147;SDS011;2592;48.140;7.614;2024-03-23T03:31:15;4.60;;;2.63;;
5147;SDS011;2592;48.140;7.614;2024-03-23T03:33:41;8.27;;;2.90;;
5147;SDS011;2592;48.140;7.614;2024-03-23T03:36:07;4.90;;;2.83;;
5147;SDS011;2592;48.140;7.614;2024-03-23T03:38:33;4.60;;;3.03;;
5147;SDS011;2592;48.140;7.614;2024-03-23T03:41:00;9.30;;;3.00;;
5147;SDS011;2592;48.140;7.614;2024-03-23T03:43:26;6.80;;;2.70;;
5147;SDS011;2592;48.140;7.614;2024-03-23T03:45:52;8.40;;;3.50;;
5147;SDS011;2592;48.140;7.614;2024-03-23T03:48:20;5.23;;;3.07;;
5147;SDS011;2592;48.140;7.614;2024-03-23T03:50:45;5.70;;;2.87;;
5147;SDS011;2592;48.140;7.614;2024-03-23T03:53:12;6.43;;;3.50;;
5147;SDS011;2592;48.140;7.614;2024-03-23T03:55:37;7.07;;;3.00;;
5147;SDS011;2592;48.140;7.614;2024-03-23T03:58:04;6.00;;;3.73;;
5147;SDS011;2592;48.140;7.614;2024-03-23T04:00:29;4.03;;;2.40;;
5147;SDS011;2592;48.140;7.614;2024-03-23T04:02:56;5.50;;;2.40;;
5147;SDS011;2592;48.140;7.614;2024-03-23T04:05:22;6.47;;;3.63;;
5147;SDS011;2592;48.140;7.614;2024-03-23T04:07:49;4.70;;;3.30;;
5147;SDS011;2592;48.140;7.614;2024-03-23T04:10:14;3.87;;;2.97;;
5147;SDS011;2592;48.140;7.614;2024-03-23T04:12:41;6.50;;;2.67;;
5147;SDS011;2592;48.140;7.614;2024-03-23T04:15:06;7.27;;;3.10;;
5147;SDS011;2592;48.140;7.614;2024-03-23T04:17:33;7.47;;;2.90;;
5147;SDS011;2592;48.140;7.614;2024-03-23T04:19:59;9.30;;;2.60;;
5147;SDS011;2592;48.140;7.614;2024-03-23T04:22:27;5.60;;;3.00;;
5147;SDS011;2592;48.140;7.614;2024-03-23T04:24:53;3.90;;;2.87;;
5147;SDS011;2592;48.140;7.614;2024-03-23T04:27:19;5.23;;;3.27;;
5147;SDS011;2592;48.140;7.614;2024-03-23T04:29:46;5.80;;;3.30;;
5147;SDS011;2592;48.140;7.614;2024-03-23T04:32:13;12.33;;;3.30;;
5147;SDS011;2592;48.140;7.614;2024-03-23T04:34:39;6.47;;;3.90;;
5147;SDS011;2592;48.140;7.614;2024-03-23T04:37:08;7.10;;;3.90;;
5147;SDS011;2592;48.140;7.614;2024-03-23T04:39:36;7.20;;;4.13;;
5147;SDS011;2592;48.140;7.614;2024-03-23T04:42:02;7.00;;;4.43;;
5147;SDS011;2592;48.140;7.614;2024-03-23T04:44:29;8.80;;;5.67;;
5147;SDS011;2592;48.140;7.614;2024-03-23T04:46:56;8.17;;;5.90;;
5147;SDS011;2592;48.140;7.614;2024-03-23T04:49:23;9.07;;;7.00;;
5147;SDS011;2592;48.140;7.614;2024-03-23T04:51:49;8.40;;;6.53;;
5147;SDS011;2592;48.140;7.614;2024-03-23T04:54:16;9.50;;;7.43;;
5147;SDS011;2592;48.140;7.614;2024-03-23T04:56:43;8.83;;;6.90;;
5147;SDS011;2592;48.140;7.614;2024-03-23T04:59:10;10.37;;;7.93;;
5147;SDS011;2592;48.140;7.614;2024-03-23T05:01:36;13.53;;;7.70;;
5147;SDS011;2592;48.140;7.614;2024-03-23T05:04:04;9.73;;;7.10;;
5147;SDS011;2592;48.140;7.614;2024-03-23T05:06:30;11.17;;;7.13;;
5147;SDS011;2592;48.140;7.614;2024-03-23T05:08:56;10.43;;;6.80;;
5147;SDS011;2592;48.140;7.614;2024-03-23T05:11:22;11.07;;;6.80;;
5147;SDS011;2592;48.140;7.614;2024-03-23T05:13:50;8.43;;;6.30;;
5147;SDS011;2592;48.140;7.614;2024-03-23T05:16:15;7.80;;;6.17;;
5147;SDS011;2592;48.140;7.614;2024-03-23T05:18:41;7.63;;;5.90;;
5147;SDS011;2592;48.140;7.614;2024-03-23T05:21:07;8.17;;;5.80;;
5147;SDS011;2592;48.140;7.614;2024-03-23T05:23:33;8.73;;;6.60;;
5147;SDS011;2592;48.140;7.614;2024-03-23T05:25:59;9.83;;;6.93;;
5147;SDS011;2592;48.140;7.614;2024-03-23T05:28:25;8.93;;;6.83;;
5147;SDS011;2592;48.140;7.614;2024-03-23T05:30:52;8.47;;;6.60;;
5147;SDS011;2592;48.140;7.614;2024-03-23T05:33:19;10.63;;;7.50;;
5147;SDS011;2592;48.140;7.614;2024-03-23T05:35:44;8.60;;;6.80;;
5147;SDS011;2592;48.140;7.614;2024-03-23T05:38:11;7.20;;;6.07;;
5147;SDS011;2592;48.140;7.614;2024-03-23T05:40:36;9.57;;;6.60;;
5147;SDS011;2592;48.140;7.614;2024-03-23T05:43:05;8.27;;;6.93;;
5147;SDS011;2592;48.140;7.614;2024-03-23T05:45:31;9.93;;;7.27;;
5147;SDS011;2592;48.140;7.614;2024-03-23T05:47:58;7.70;;;6.10;;
5147;SDS011;2592;48.140;7.614;2024-03-23T05:50:25;7.33;;;5.50;;
5147;SDS011;2592;48.140;7.614;2024-03-23T05:52:50;6.97;;;5.70;;
5147;SDS011;2592;48.140;7.614;2024-03-23T05:55:17;4.03;;;3.40;;
5147;SDS011;2592;48.140;7.614;2024-03-23T05:57:42;3.33;;;2.67;;
5147;SDS011;2592;48.140;7.614;2024-03-23T06:00:09;3.93;;;2.30;;
5147;SDS011;2592;48.140;7.614;2024-03-23T06:02:40;3.17;;;1.97;;
5147;SDS011;2592;48.140;7.614;2024-03-23T06:05:08;2.00;;;1.50;;
5147;SDS011;2592;48.140;7.614;2024-03-23T06:07:34;1.80;;;1.23;;
5147;SDS011;2592;48.140;7.614;2024-03-23T06:10:00;2.50;;;1.03;;
5147;SDS011;2592;48.140;7.614;2024-03-23T06:12:26;2.07;;;1.10;;
5147;SDS011;2592;48.140;7.614;2024-03-23T06:14:52;1.30;;;1.00;;
5147;SDS011;2592;48.140;7.614;2024-03-23T06:17:18;1.30;;;0.87;;
5147;SDS011;2592;48.140;7.614;2024-03-23T06:19:44;2.03;;;1.07;;
5147;SDS011;2592;48.140;7.614;2024-03-23T06:22:11;0.83;;;0.70;;
5147;SDS011;2592;48.140;7.614;2024-03-23T06:24:38;1.00;;;0.70;;
5147;SDS011;2592;48.140;7.614;2024-03-23T06:27:03;0.80;;;0.60;;
5147;SDS011;2592;48.140;7.614;2024-03-23T06:29:30;1.47;;;0.77;;
5147;SDS011;2592;48.140;7.614;2024-03-23T06:31:55;1.00;;;0.60;;
5147;SDS011;2592;48.140;7.614;2024-03-23T06:34:22;0.93;;;0.60;;
5147;SDS011;2592;48.140;7.614;2024-03-23T06:36:48;1.20;;;0.70;;
5147;SDS011;2592;48.140;7.614;2024-03-23T06:39:15;0.90;;;0.60;;
5147;SDS011;2592;48.140;7.614;2024-03-23T06:41:41;1.67;;;0.70;;
5147;SDS011;2592;48.140;7.614;2024-03-23T06:44:07;1.20;;;0.63;;
5147;SDS011;2592;48.140;7.614;2024-03-23T06:46:33;0.90;;;0.60;;
5147;SDS011;2592;48.140;7.614;2024-03-23T06:48:59;0.93;;;0.60;;
5147;SDS011;2592;48.140;7.614;2024-03-23T06:51:25;0.80;;;0.60;;
5147;SDS011;2592;48.140;7.614;2024-03-23T06:53:51;0.80;;;0.50;;
5147;SDS011;2592;48.140;7.614;2024-03-23T06:56:18;2.87;;;0.60;;
5147;SDS011;2592;48.140;7.614;2024-03-23T06:58:44;1.30;;;0.70;;
5147;SDS011;2592;48.140;7.614;2024-03-23T07:01:10;1.00;;;0.57;;
5147;SDS011;2592;48.140;7.614;2024-03-23T07:03:36;1.00;;;0.70;;
5147;SDS011;2592;48.140;7.614;2024-03-23T07:06:02;1.10;;;0.60;;
5147;SDS011;2592;48.140;7.614;2024-03-23T07:08:28;0.97;;;0.70;;
5147;SDS011;2592;48.140;7.614;2024-03-23T07:10:54;1.37;;;0.67;;
5147;SDS011;2592;48.140;7.614;2024-03-23T07:13:21;1.67;;;0.80;;
5147;SDS011;2592;48.140;7.614;2024-03-23T07:15:51;1.00;;;0.70;;
5147;SDS011;2592;48.140;7.614;2024-03-23T07:18:17;4.63;;;0.83;;
5147;SDS011;2592;48.140;7.614;2024-03-23T07:20:45;2.13;;;0.80;;
5147;SDS011;2592;48.140;7.614;2024-03-23T07:23:17;1.70;;;1.00;;
5147;SDS011;2592;48.140;7.614;2024-03-23T07:25:43;3.53;;;1.13;;
5147;SDS011;2592;48.140;7.614;2024-03-23T07:28:09;2.27;;;0.80;;
5147;SDS011;2592;48.140;7.614;2024-03-23T07:30:36;2.50;;;0.87;;
5147;SDS011;2592;48.140;7.614;2024-03-23T07:33:03;1.80;;;1.07;;
5147;SDS011;2592;48.140;7.614;2024-03-23T07:35:28;4.80;;;1.37;;
5147;SDS011;2592;48.140;7.614;2024-03-23T07:37:55;3.80;;;1.20;;
5147;SDS011;2592;48.140;7.614;2024-03-23T07:40:20;5.40;;;1.67;;
5147;SDS011;2592;48.140;7.614;2024-03-23T07:42:47;2.80;;;1.50;;
5147;SDS011;2592;48.140;7.614;2024-03-23T07:45:13;8.00;;;1.60;;
5147;SDS011;2592;48.140;7.614;2024-03-23T07:47:41;3.43;;;1.57;;
5147;SDS011;2592;48.140;7.614;2024-03-23T07:50:06;2.90;;;1.43;;
5147;SDS011;2592;48.140;7.614;2024-03-23T07:52:33;5.20;;;1.70;;
5147;SDS011;2592;48.140;7.614;2024-03-23T07:54:58;4.70;;;1.27;;
5147;SDS011;2592;48.140;7.614;2024-03-23T07:57:25;3.50;;;1.70;;
5147;SDS011;2592;48.140;7.614;2024-03-23T07:59:50;6.40;;;2.20;;
5147;SDS011;2592;48.140;7.614;2024-03-23T08:02:17;12.87;;;3.20;;
5147;SDS011;2592;48.140;7.614;2024-03-23T08:04:44;9.50;;;4.53;;
5147;SDS011;2592;48.140;7.614;2024-03-23T08:07:10;9.10;;;3.33;;
5147;SDS011;2592;48.140;7.614;2024-03-23T08:09:35;16.07;;;7.00;;
5147;SDS011;2592;48.140;7.614;2024-03-23T08:12:02;9.80;;;3.40;;
5147;SDS011;2592;48.140;7.614;2024-03-23T08:14:27;10.03;;;3.87;;
5147;SDS011;2592;48.140;7.614;2024-03-23T08:16:54;8.37;;;3.77;;
5147;SDS011;2592;48.140;7.614;2024-03-23T08:19:19;10.83;;;4.33;;
5147;SDS011;2592;48.140;7.614;2024-03-23T08:21:47;9.60;;;3.47;;
5147;SDS011;2592;48.140;7.614;2024-03-23T08:24:14;7.40;;;3.40;;
5147;SDS011;2592;48.140;7.614;2024-03-23T08:26:40;10.30;;;3.50;;
5147;SDS011;2592;48.140;7.614;2024-03-23T08:29:06;12.60;;;5.70;;
5147;SDS011;2592;48.140;7.614;2024-03-23T08:31:32;11.50;;;5.73;;
5147;SDS011;2592;48.140;7.614;2024-03-23T08:33:58;11.60;;;4.53;;
5147;SDS011;2592;48.140;7.614;2024-03-23T08:36:24;10.00;;;3.90;;
5147;SDS011;2592;48.140;7.614;2024-03-23T08:38:51;10.80;;;4.13;;
5147;SDS011;2592;48.140;7.614;2024-03-23T08:41:20;9.67;;;4.70;;
5147;SDS011;2592;48.140;7.614;2024-03-23T08:43:45;17.77;;;6.27;;
5147;SDS011;2592;48.140;7.614;2024-03-23T08:46:12;8.40;;;3.80;;
5147;SDS011;2592;48.140;7.614;2024-03-23T08:48:38;15.73;;;4.27;;
5147;SDS011;2592;48.140;7.614;2024-03-23T08:51:05;7.60;;;3.43;;
5147;SDS011;2592;48.140;7.614;2024-03-23T08:53:31;7.60;;;3.33;;
5147;SDS011;2592;48.140;7.614;2024-03-23T08:55:59;6.10;;;3.47;;
5147;SDS011;2592;48.140;7.614;2024-03-23T08:58:26;8.63;;;3.57;;
5147;SDS011;2592;48.140;7.614;2024-03-23T09:00:53;7.47;;;3.30;;
5147;SDS011;2592;48.140;7.614;2024-03-23T09:03:21;11.80;;;2.90;;
5147;SDS011;2592;48.140;7.614;2024-03-23T09:05:48;5.70;;;2.70;;
5147;SDS011;2592;48.140;7.614;2024-03-23T09:08:14;10.43;;;2.80;;
5147;SDS011;2592;48.140;7.614;2024-03-23T09:10:41;11.53;;;3.17;;
5147;SDS011;2592;48.140;7.614;2024-03-23T09:13:08;6.97;;;2.47;;
5147;SDS011;2592;48.140;7.614;2024-03-23T09:15:36;7.20;;;2.87;;
5147;SDS011;2592;48.140;7.614;2024-03-23T09:18:02;5.07;;;2.60;;
5147;SDS011;2592;48.140;7.614;2024-03-23T09:20:28;10.83;;;3.47;;
5147;SDS011;2592;48.140;7.614;2024-03-23T09:22:54;7.57;;;2.40;;
5147;SDS011;2592;48.140;7.614;2024-03-23T09:25:20;10.50;;;3.27;;
5147;SDS011;2592;48.140;7.614;2024-03-23T09:27:46;5.63;;;2.73;;
5147;SDS011;2592;48.140;7.614;2024-03-23T09:30:14;10.00;;;3.77;;
5147;SDS011;2592;48.140;7.614;2024-03-23T09:32:39;6.00;;;2.77;;
5147;SDS011;2592;48.140;7.614;2024-03-23T09:35:06;6.10;;;2.70;;
5147;SDS011;2592;48.140;7.614;2024-03-23T09:37:31;13.43;;;3.23;;
5147;SDS011;2592;48.140;7.614;2024-03-23T09:39:58;11.00;;;2.70;;
5147;SDS011;2592;48.140;7.614;2024-03-23T09:42:23;8.53;;;2.87;;
5147;SDS011;2592;48.140;7.614;2024-03-23T09:44:50;11.70;;;2.87;;
5147;SDS011;2592;48.140;7.614;2024-03-23T09:47:17;10.77;;;2.80;;
5147;SDS011;2592;48.140;7.614;2024-03-23T09:49:44;7.10;;;2.80;;
5147;SDS011;2592;48.140;7.614;2024-03-23T09:52:11;8.23;;;3.43;;
5147;SDS011;2592;48.140;7.614;2024-03-23T09:54:36;6.83;;;2.10;;
5147;SDS011;2592;48.140;7.614;2024-03-23T09:57:03;4.97;;;2.17;;
5147;SDS011;2592;48.140;7.614;2024-03-23T09:59:29;8.97;;;2.43;;
5147;SDS011;2592;48.140;7.614;2024-03-23T10:01:55;5.50;;;2.20;;
5147;SDS011;2592;48.140;7.614;2024-03-23T10:04:37;13.87;;;2.97;;
5147;SDS011;2592;48.140;7.614;2024-03-23T10:07:13;5.60;;;2.07;;
5147;SDS011;2592;48.140;7.614;2024-03-23T10:09:38;9.77;;;2.80;;
5147;SDS011;2592;48.140;7.614;2024-03-23T10:12:09;3.90;;;1.80;;
5147;SDS011;2592;48.140;7.614;2024-03-23T10:14:35;3.70;;;2.10;;
5147;SDS011;2592;48.140;7.614;2024-03-23T10:19:44;3.23;;;1.47;;
5147;SDS011;2592;48.140;7.614;2024-03-23T10:22:13;2.70;;;1.10;;
5147;SDS011;2592;48.140;7.614;2024-03-23T10:24:39;6.13;;;1.60;;
5147;SDS011;2592;48.140;7.614;2024-03-23T10:27:05;2.20;;;1.33;;
5147;SDS011;2592;48.140;7.614;2024-03-23T10:29:31;6.60;;;1.17;;
5147;SDS011;2592;48.140;7.614;2024-03-23T10:32:09;10.23;;;6.87;;
5147;SDS011;2592;48.140;7.614;2024-03-23T10:34:35;7.63;;;2.50;;
5147;SDS011;2592;48.140;7.614;2024-03-23T10:37:03;3.97;;;1.03;;
5147;SDS011;2592;48.140;7.614;2024-03-23T10:39:30;2.03;;;0.80;;
5147;SDS011;2592;48.140;7.614;2024-03-23T10:41:56;6.80;;;1.53;;
5147;SDS011;2592;48.140;7.614;2024-03-23T10:44:22;2.90;;;1.07;;
5147;SDS011;2592;48.140;7.614;2024-03-23T10:46:50;2.50;;;1.20;;
5147;SDS011;2592;48.140;7.614;2024-03-23T10:49:15;2.80;;;0.80;;
5147;SDS011;2592;48.140;7.614;2024-03-23T10:51:42;2.83;;;1.03;;
5147;SDS011;2592;48.140;7.614;2024-03-23T10:54:09;2.50;;;1.10;;
5147;SDS011;2592;48.140;7.614;2024-03-23T10:56:38;4.80;;;1.30;;
5147;SDS011;2592;48.140;7.614;2024-03-23T10:59:04;1.93;;;1.00;;
5147;SDS011;2592;48.140;7.614;2024-03-23T11:01:33;5.80;;;1.63;;
5147;SDS011;2592;48.140;7.614;2024-03-23T11:03:58;4.47;;;1.57;;
5147;SDS011;2592;48.140;7.614;2024-03-23T11:06:34;5.90;;;2.67;;
5147;SDS011;2592;48.140;7.614;2024-03-23T11:09:01;8.37;;;3.30;;
5147;SDS011;2592;48.140;7.614;2024-03-23T11:11:28;7.00;;;2.50;;
5147;SDS011;2592;48.140;7.614;2024-03-23T11:13:57;7.27;;;2.30;;
5147;SDS011;2592;48.140;7.614;2024-03-23T11:16:23;5.97;;;2.63;;
5147;SDS011;2592;48.140;7.614;2024-03-23T11:18:50;5.43;;;1.73;;
5147;SDS011;2592;48.140;7.614;2024-03-23T11:26:39;14.13;;;2.30;;
5147;SDS011;2592;48.140;7.614;2024-03-23T11:29:09;7.30;;;2.50;;
5147;SDS011;2592;48.140;7.614;2024-03-23T11:31:36;4.87;;;1.70;;
5147;SDS011;2592;48.140;7.614;2024-03-23T11:34:03;9.53;;;2.47;;
5147;SDS011;2592;48.140;7.614;2024-03-23T11:36:29;4.70;;;1.90;;
5147;SDS011;2592;48.140;7.614;2024-03-23T11:38:55;13.93;;;2.30;;
5147;SDS011;2592;48.140;7.614;2024-03-23T11:41:20;6.30;;;2.57;;
5147;SDS011;2592;48.140;7.614;2024-03-23T11:43:48;9.23;;;2.57;;
5147;SDS011;2592;48.140;7.614;2024-03-23T11:46:21;5.10;;;1.83;;
5147;SDS011;2592;48.140;7.614;2024-03-23T11:48:49;4.73;;;1.90;;
5147;SDS011;2592;48.140;7.614;2024-03-23T11:51:14;6.83;;;2.37;;
5147;SDS011;2592;48.140;7.614;2024-03-23T11:53:41;5.40;;;2.10;;
5147;SDS011;2592;48.140;7.614;2024-03-23T11:56:06;5.73;;;2.10;;
5147;SDS011;2592;48.140;7.614;2024-03-23T11:58:34;3.97;;;1.50;;
5147;SDS011;2592;48.140;7.614;2024-03-23T12:01:01;5.07;;;1.50;;
5147;SDS011;2592;48.140;7.614;2024-03-23T12:03:28;8.37;;;2.40;;
5147;SDS011;2592;48.140;7.614;2024-03-23T12:05:55;3.97;;;1.50;;
5147;SDS011;2592;48.140;7.614;2024-03-23T12:08:22;7.13;;;2.40;;
5147;SDS011;2592;48.140;7.614;2024-03-23T12:10:49;4.67;;;1.57;;
5147;SDS011;2592;48.140;7.614;2024-03-23T12:13:19;5.20;;;1.73;;
5147;SDS011;2592;48.140;7.614;2024-03-23T12:15:45;5.67;;;1.93;;
5147;SDS011;2592;48.140;7.614;2024-03-23T12:18:13;4.83;;;1.93;;
5147;SDS011;2592;48.140;7.614;2024-03-23T12:20:39;5.50;;;2.53;;
5147;SDS011;2592;48.140;7.614;2024-03-23T12:23:09;3.80;;;1.63;;
5147;SDS011;2592;48.140;7.614;2024-03-23T12:25:35;5.80;;;1.97;;
5147;SDS011;2592;48.140;7.614;2024-03-23T12:28:02;3.43;;;1.13;;
5147;SDS011;2592;48.140;7.614;2024-03-23T12:30:27;10.33;;;1.60;;
5147;SDS011;2592;48.140;7.614;2024-03-23T12:32:54;4.73;;;1.70;;
5147;SDS011;2592;48.140;7.614;2024-03-23T12:35:21;5.50;;;1.60;;
5147;SDS011;2592;48.140;7.614;2024-03-23T12:37:47;10.80;;;3.37;;
5147;SDS011;2592;48.140;7.614;2024-03-23T12:40:13;5.00;;;1.53;;
5147;SDS011;2592;48.140;7.614;2024-03-23T12:42:39;3.27;;;1.60;;
5147;SDS011;2592;48.140;7.614;2024-03-23T12:45:05;6.43;;;1.50;;
5147;SDS011;2592;48.140;7.614;2024-03-23T12:47:31;6.27;;;1.10;;
5147;SDS011;2592;48.140;7.614;2024-03-23T12:49:57;5.03;;;1.57;;
5147;SDS011;2592;48.140;7.614;2024-03-23T12:52:25;3.10;;;1.23;;
5147;SDS011;2592;48.140;7.614;2024-03-23T12:54:53;6.13;;;1.50;;
5147;SDS011;2592;48.140;7.614;2024-03-23T12:57:21;5.00;;;1.60;;
5147;SDS011;2592;48.140;7.614;2024-03-23T12:59:46;8.23;;;1.80;;
5147;SDS011;2592;48.140;7.614;2024-03-23T13:02:16;3.13;;;1.33;;
5147;SDS011;2592;48.140;7.614;2024-03-23T13:04:41;5.60;;;1.50;;
5147;SDS011;2592;48.140;7.614;2024-03-23T13:07:08;7.03;;;2.13;;
5147;SDS011;2592;48.140;7.614;2024-03-23T13:09:37;4.83;;;1.33;;
5147;SDS011;2592;48.140;7.614;2024-03-23T13:12:17;4.83;;;1.57;;
5147;SDS011;2592;48.140;7.614;2024-03-23T13:14:45;6.57;;;1.80;;
5147;SDS011;2592;48.140;7.614;2024-03-23T13:17:11;3.67;;;1.63;;
5147;SDS011;2592;48.140;7.614;2024-03-23T13:19:37;4.40;;;1.50;;
5147;SDS011;2592;48.140;7.614;2024-03-23T13:22:03;10.20;;;1.90;;
5147;SDS011;2592;48.140;7.614;2024-03-23T13:24:30;3.90;;;1.77;;
5147;SDS011;2592;48.140;7.614;2024-03-23T13:26:57;5.17;;;1.43;;
5147;SDS011;2592;48.140;7.614;2024-03-23T13:29:24;4.00;;;1.33;;
5147;SDS011;2592;48.140;7.614;2024-03-23T13:31:49;6.47;;;1.60;;
5147;SDS011;2592;48.140;7.614;2024-03-23T13:34:16;3.67;;;1.27;;
5147;SDS011;2592;48.140;7.614;2024-03-23T13:36:42;3.53;;;1.43;;
5147;SDS011;2592;48.140;7.614;2024-03-23T13:39:09;8.00;;;1.60;;
5147;SDS011;2592;48.140;7.614;2024-03-23T13:41:36;2.07;;;1.27;;
5147;SDS011;2592;48.140;7.614;2024-03-23T13:44:04;4.53;;;1.67;;
5147;SDS011;2592;48.140;7.614;2024-03-23T13:46:30;4.60;;;1.90;;
5147;SDS011;2592;48.140;7.614;2024-03-23T13:48:56;4.37;;;1.40;;
5147;SDS011;2592;48.140;7.614;2024-03-23T13:51:23;7.77;;;1.73;;
5147;SDS011;2592;48.140;7.614;2024-03-23T13:53:50;6.70;;;1.57;;
5147;SDS011;2592;48.140;7.614;2024-03-23T13:56:16;3.10;;;1.30;;
5147;SDS011;2592;48.140;7.614;2024-03-23T13:58:42;3.70;;;1.63;;
5147;SDS011;2592;48.140;7.614;2024-03-23T14:01:13;2.30;;;1.37;;
5147;SDS011;2592;48.140;7.614;2024-03-23T14:03:39;3.47;;;1.20;;
5147;SDS011;2592;48.140;7.614;2024-03-23T14:06:05;6.90;;;1.67;;
5147;SDS011;2592;48.140;7.614;2024-03-23T14:08:32;4.80;;;1.43;;
5147;SDS011;2592;48.140;7.614;2024-03-23T14:10:59;3.70;;;1.53;;
5147;SDS011;2592;48.140;7.614;2024-03-23T14:13:25;3.67;;;1.13;;
5147;SDS011;2592;48.140;7.614;2024-03-23T14:15:52;7.17;;;1.70;;
5147;SDS011;2592;48.140;7.614;2024-03-23T14:18:20;4.53;;;1.40;;
5147;SDS011;2592;48.140;7.614;2024-03-23T14:20:47;6.47;;;1.17;;
5147;SDS011;2592;48.140;7.614;2024-03-23T14:23:14;6.60;;;1.30;;
5147;SDS011;2592;48.140;7.614;2024-03-23T14:25:39;1.70;;;0.80;;
5147;SDS011;2592;48.140;7.614;2024-03-23T14:28:06;6.40;;;1.00;;
5147;SDS011;2592;48.140;7.614;2024-03-23T14:30:33;2.47;;;0.93;;
5147;SDS011;2592;48.140;7.614;2024-03-23T14:32:59;3.70;;;1.23;;
5147;SDS011;2592;48.140;7.614;2024-03-23T14:35:26;1.43;;;0.80;;
5147;SDS011;2592;48.140;7.614;2024-03-23T14:37:53;3.77;;;1.20;;
5147;SDS011;2592;48.140;7.614;2024-03-23T14:40:18;1.00;;;0.70;;
5147;SDS011;2592;48.140;7.614;2024-03-23T14:42:46;1.27;;;0.77;;
5147;SDS011;2592;48.140;7.614;2024-03-23T14:45:12;3.33;;;0.97;;
5147;SDS011;2592;48.140;7.614;2024-03-23T14:47:40;1.53;;;0.90;;
5147;SDS011;2592;48.140;7.614;2024-03-23T14:50:07;2.13;;;0.93;;
5147;SDS011;2592;48.140;7.614;2024-03-23T14:52:40;1.50;;;0.90;;
5147;SDS011;2592;48.140;7.614;2024-03-23T14:55:06;1.17;;;0.70;;
5147;SDS011;2592;48.140;7.614;2024-03-23T14:57:33;2.57;;;1.00;;
5147;SDS011;2592;48.140;7.614;2024-03-23T14:59:59;2.33;;;0.83;;
5147;SDS011;2592;48.140;7.614;2024-03-23T15:02:25;2.97;;;1.00;;
5147;SDS011;2592;48.140;7.614;2024-03-23T15:04:52;2.60;;;1.00;;
5147;SDS011;2592;48.140;7.614;2024-03-23T15:07:19;3.93;;;0.83;;
5147;SDS011;2592;48.140;7.614;2024-03-23T15:09:46;2.30;;;0.80;;
5147;SDS011;2592;48.140;7.614;2024-03-23T15:12:12;1.60;;;0.97;;
5147;SDS011;2592;48.140;7.614;2024-03-23T15:14:38;2.57;;;0.93;;
5147;SDS011;2592;48.140;7.614;2024-03-23T15:17:04;6.80;;;1.17;;
5147;SDS011;2592;48.140;7.614;2024-03-23T15:19:32;1.80;;;0.80;;
5147;SDS011;2592;48.140;7.614;2024-03-23T15:21:59;1.97;;;0.80;;
5147;SDS011;2592;48.140;7.614;2024-03-23T15:24:24;3.70;;;1.53;;
5147;SDS011;2592;48.140;7.614;2024-03-23T15:26:52;2.60;;;1.20;;
5147;SDS011;2592;48.140;7.614;2024-03-23T15:29:18;5.03;;;1.17;;
5147;SDS011;2592;48.140;7.614;2024-03-23T15:31:44;4.03;;;1.77;;
5147;SDS011;2592;48.140;7.614;2024-03-23T15:34:11;4.53;;;1.27;;
5147;SDS011;2592;48.140;7.614;2024-03-23T15:36:38;8.10;;;1.40;;
5147;SDS011;2592;48.140;7.614;2024-03-23T15:39:04;1.13;;;0.80;;
5147;SDS011;2592;48.140;7.614;2024-03-23T15:41:31;2.37;;;1.20;;
5147;SDS011;2592;48.140;7.614;2024-03-23T15:43:59;2.37;;;0.87;;
5147;SDS011;2592;48.140;7.614;2024-03-23T15:46:26;2.30;;;1.03;;
5147;SDS011;2592;48.140;7.614;2024-03-23T15:48:51;4.50;;;1.60;;
5147;SDS011;2592;48.140;7.614;2024-03-23T15:51:19;2.20;;;1.60;;
5147;SDS011;2592;48.140;7.614;2024-03-23T15:53:45;6.77;;;1.30;;
5147;SDS011;2592;48.140;7.614;2024-03-23T15:56:11;5.67;;;1.47;;
5147;SDS011;2592;48.140;7.614;2024-03-23T15:58:38;1.90;;;1.17;;
5147;SDS011;2592;48.140;7.614;2024-03-23T16:01:06;8.57;;;2.40;;
5147;SDS011;2592;48.140;7.614;2024-03-23T16:03:34;3.07;;;2.30;;
5147;SDS011;2592;48.140;7.614;2024-03-23T16:06:01;6.37;;;1.43;;
5147;SDS011;2592;48.140;7.614;2024-03-23T16:08:27;3.17;;;1.37;;
5147;SDS011;2592;48.140;7.614;2024-03-23T16:10:54;5.70;;;1.70;;